Alford, FL

6:08 AM CDT on July 30, 2014 (GMT -0500)
Silver Lake Road (KFLFOUNT2) Elev 178 ft | 30.48 °N, 85.47 °W | Change Station

Current weather conditions updated 5 seconds ago

Clear
Clear
64.2 °F
Feels Like 64.2 °F
N
0.0
Wind Variable Wind from NW
Gusts 0.0 mph

Today is forecast to be nearly the same temperature as yesterday.

Today
High -- | Low -- °F
--% Chance of Precip.
Yesterday
High -- | Low -- °F
Precip. -- in
5:58 AM 7:37 PM
Waxing Crescent, 11% visible
Pressure 30.01 in
Visibility 10.0 miles
Clouds Clear
Dew Point 64 °F
Humidity 100%
Rainfall 0.00 in
Snow Depth Not available.
UV 0 out of 12
Pollen 4.20 out of 12
Air Quality Not available.
Flu Activity Not available.
METAR KMAI 301053Z AUTO 00000KT 10SM CLR 19/19 A3001 RMK AO2 SLP160 T01940189

More Conditions Fewer Conditions

Pressure 30.01 in
Visibility 10.0 miles
Clouds Clear
Dew Point 64 °F
Humidity 100%
Rainfall 0.00 in
Snow Depth Not available.
UV 0 out of 12
Pollen 4.20 out of 12
Air Quality Not available.
Flu Activity Not available.
METAR KMAI 301053Z AUTO 00000KT 10SM CLR 19/19 A3001 RMK AO2 SLP160 T01940189

More Conditions Fewer Conditions

10-Day Weather Forecast

Almanac

Astronomy

Jul. 30, 2014 Rise Set
Actual Time 5:58 AM CDT 7:37 PM CDT
Civil Twilight 5:31 AM CDT 8:03 PM CDT
Nautical Twilight 5:00 AM CDT 8:35 PM CDT
Astronomical Twilight 4:27 AM CDT 9:08 PM CDT
Moon 9:11 AM CDT 9:39 PM CDT
Length of Visible Light 14h 31m
Length of Day
13h 39m
Tomorrow will be 1m 21s shorter.
Waxing Crescent, 11% of the Moon is Illuminated
Today
Waxing Crescent
Aug 3
First Quarter
Aug 10
Full
Aug 17
Last Quarter
Aug 25
New

Today's Extremes

State Highs State Lows

Community

WunderPhotos

Upload Photos

1,739,039 photos uploaded!

WunderBlogs® & News

Nearby

Snow Depth

Station Depth Elevation
No new snow has been reported.

Earthquake Activity

City Distance Mag. Time & Date
No recent earthquake activity has been reported nearby.
Minimum magnitude displayed is 2.5.

Coastal Water Temperatures

Place Temperature
Panama City, FL 84.9 °F
Panama City Beach, FL 77.0 °F
Apalachicola, FL 87.1 °F

Nearby Weather Stations

Station Location Temp. Dew Point Humidity Wind Precip. Elev Updated Type
Silver Lake Road, Fountain, FL 64.2 °F 64 °F 100% NW  at  0.0 mph 0.00 in / hr 178 ft 6:08 AM EST Rapid Fire
Cypress, Marianna, FL 64.5 °F 64 °F 100% South  at  0.0 mph 0.00 in / hr 138 ft 6:08 AM CDT Rapid Fire
Bob's Backyard Weather, Bonifay, FL 63.8 °F 63 °F 96% East  at  0.0 mph 0.00 in / hr 131 ft 6:58 AM EDT Normal

Show More Stations Show Fewer Stations